sensor_id;sensor_type;location;lat;lon;timestamp;pressure;altitude;pressure_sealevel;temperature;humidity
74125;BME280;62475;52.192;5.396;2022-10-16T00:01:30;100992.66;;;12.80;93.43
74125;BME280;62475;52.192;5.396;2022-10-16T00:03:57;100994.59;;;12.79;93.36
74125;BME280;62475;52.192;5.396;2022-10-16T00:06:24;100990.91;;;12.70;93.92
74125;BME280;62475;52.192;5.396;2022-10-16T00:08:50;100975.69;;;12.59;93.47
74125;BME280;62475;52.192;5.396;2022-10-16T00:11:21;100994.06;;;12.77;94.09
74125;BME280;62475;52.192;5.396;2022-10-16T00:13:48;101000.19;;;12.74;94.54
74125;BME280;62475;52.192;5.396;2022-10-16T00:16:14;101003.88;;;12.70;93.05
74125;BME280;62475;52.192;5.396;2022-10-16T00:18:40;101003.25;;;12.73;93.52
74125;BME280;62475;52.192;5.396;2022-10-16T00:21:12;101010.81;;;12.81;92.75
74125;BME280;62475;52.192;5.396;2022-10-16T00:23:38;101011.53;;;12.86;91.68
74125;BME280;62475;52.192;5.396;2022-10-16T00:26:15;100996.34;;;12.75;92.59
74125;BME280;62475;52.192;5.396;2022-10-16T00:28:41;101006.97;;;12.82;93.08
74125;BME280;62475;52.192;5.396;2022-10-16T00:31:09;101006.44;;;12.80;92.28
74125;BME280;62475;52.192;5.396;2022-10-16T00:33:35;101022.88;;;12.85;91.36
74125;BME280;62475;52.192;5.396;2022-10-16T00:36:03;101002.16;;;12.87;92.37
74125;BME280;62475;52.192;5.396;2022-10-16T00:38:28;100981.63;;;12.80;91.09
74125;BME280;62475;52.192;5.396;2022-10-16T00:40:54;100975.59;;;12.78;91.22
74125;BME280;62475;52.192;5.396;2022-10-16T00:46:01;100995.94;;;12.95;91.42
74125;BME280;62475;52.192;5.396;2022-10-16T00:48:27;100995.94;;;12.95;91.66
74125;BME280;62475;52.192;5.396;2022-10-16T00:50:52;100989.78;;;12.85;92.40
74125;BME280;62475;52.192;5.396;2022-10-16T00:53:18;100999.63;;;12.91;91.76
74125;BME280;62475;52.192;5.396;2022-10-16T00:55:44;100993.50;;;12.94;92.35
74125;BME280;62475;52.192;5.396;2022-10-16T00:58:11;100995.94;;;12.95;91.97
74125;BME280;62475;52.192;5.396;2022-10-16T01:00:36;101000.31;;;12.96;92.24
74125;BME280;62475;52.192;5.396;2022-10-16T01:03:02;101015.38;;;13.17;91.00
74125;BME280;62475;52.192;5.396;2022-10-16T01:05:50;101002.50;;;13.13;91.11
74125;BME280;62475;52.192;5.396;2022-10-16T01:08:27;101005.66;;;13.20;90.70
74125;BME280;62475;52.192;5.396;2022-10-16T01:10:59;101014.75;;;13.34;91.72
74125;BME280;62475;52.192;5.396;2022-10-16T01:13:33;101009.56;;;13.32;91.20
74125;BME280;62475;52.192;5.396;2022-10-16T01:16:34;101011.38;;;13.37;91.17
74125;BME280;62475;52.192;5.396;2022-10-16T01:19:14;101017.41;;;13.39;90.82
74125;BME280;62475;52.192;5.396;2022-10-16T01:21:44;101015.06;;;13.32;92.21
74125;BME280;62475;52.192;5.396;2022-10-16T01:24:30;101000.75;;;13.44;90.51
74125;BME280;62475;52.192;5.396;2022-10-16T01:27:07;101007.28;;;13.48;90.57
74125;BME280;62475;52.192;5.396;2022-10-16T01:32:33;100998.28;;;13.42;90.96
74125;BME280;62475;52.192;5.396;2022-10-16T01:35:14;101013.13;;;13.46;92.24
74125;BME280;62475;52.192;5.396;2022-10-16T01:40:13;101011.69;;;13.35;92.38
74125;BME280;62475;52.192;5.396;2022-10-16T01:42:42;101018.03;;;13.36;91.99
74125;BME280;62475;52.192;5.396;2022-10-16T01:45:12;101017.53;;;13.34;93.12
74125;BME280;62475;52.192;5.396;2022-10-16T01:47:40;101017.00;;;13.32;93.24
74125;BME280;62475;52.192;5.396;2022-10-16T01:50:07;101016.19;;;13.31;93.95
74125;BME280;62475;52.192;5.396;2022-10-16T01:52:36;101022.41;;;13.37;92.96
74125;BME280;62475;52.192;5.396;2022-10-16T01:55:04;101001.66;;;13.26;93.27
74125;BME280;62475;52.192;5.396;2022-10-16T01:57:32;100993.47;;;13.34;92.79
74125;BME280;62475;52.192;5.396;2022-10-16T02:00:04;100959.81;;;13.24;95.25
74125;BME280;62475;52.192;5.396;2022-10-16T02:02:32;100968.38;;;13.22;95.92
74125;BME280;62475;52.192;5.396;2022-10-16T02:05:47;100975.13;;;13.16;97.13
74125;BME280;62475;52.192;5.396;2022-10-16T02:07:52;100968.38;;;13.09;96.58
74125;BME280;62475;52.192;5.396;2022-10-16T02:10:18;100965.63;;;13.09;96.12
74125;BME280;62475;52.192;5.396;2022-10-16T02:13:08;100986.38;;;13.06;97.37
74125;BME280;62475;52.192;5.396;2022-10-16T02:15:38;100976.53;;;13.00;95.21
74125;BME280;62475;52.192;5.396;2022-10-16T02:18:05;100998.03;;;13.17;96.53
74125;BME280;62475;52.192;5.396;2022-10-16T02:20:36;101002.50;;;13.13;96.21
74125;BME280;62475;52.192;5.396;2022-10-16T02:23:03;100992.69;;;13.07;96.92
74125;BME280;62475;52.192;5.396;2022-10-16T02:25:32;101004.84;;;13.06;95.96
74125;BME280;62475;52.192;5.396;2022-10-16T02:28:09;101012.41;;;13.14;95.65
74125;BME280;62475;52.192;5.396;2022-10-16T02:30:43;101018.13;;;13.04;97.12
74125;BME280;62475;52.192;5.396;2022-10-16T02:33:11;101011.50;;;13.05;97.57
74125;BME280;62475;52.192;5.396;2022-10-16T02:35:40;101013.44;;;13.04;96.06
74125;BME280;62475;52.192;5.396;2022-10-16T02:38:10;101002.78;;;12.98;96.70
74125;BME280;62475;52.192;5.396;2022-10-16T02:40:36;101015.44;;;12.99;97.01
74125;BME280;62475;52.192;5.396;2022-10-16T02:43:04;101028.91;;;13.00;97.35
74125;BME280;62475;52.192;5.396;2022-10-16T02:45:32;101018.72;;;12.87;96.87
74125;BME280;62475;52.192;5.396;2022-10-16T02:47:57;101031.41;;;13.02;96.09
74125;BME280;62475;52.192;5.396;2022-10-16T02:50:22;101030.84;;;12.86;97.27
74125;BME280;62475;52.192;5.396;2022-10-16T02:52:50;101038.03;;;13.01;97.93
74125;BME280;62475;52.192;5.396;2022-10-16T02:55:15;101027.97;;;12.91;98.26
74125;BME280;62475;52.192;5.396;2022-10-16T02:57:40;101035.06;;;12.97;96.63
74125;BME280;62475;52.192;5.396;2022-10-16T03:00:11;101046.59;;;12.99;97.99
74125;BME280;62475;52.192;5.396;2022-10-16T03:02:38;101024.59;;;12.81;99.18
74125;BME280;62475;52.192;5.396;2022-10-16T03:05:03;101030.63;;;12.83;97.91
74125;BME280;62475;52.192;5.396;2022-10-16T03:07:29;101041.06;;;12.86;98.29
74125;BME280;62475;52.192;5.396;2022-10-16T03:09:54;101035.94;;;12.93;97.79
74125;BME280;62475;52.192;5.396;2022-10-16T03:12:23;101026.25;;;12.95;98.83
74125;BME280;62475;52.192;5.396;2022-10-16T03:14:51;100985.09;;;12.72;97.56
74125;BME280;62475;52.192;5.396;2022-10-16T03:17:17;100991.44;;;12.86;97.40
74125;BME280;62475;52.192;5.396;2022-10-16T03:19:42;101012.16;;;12.97;98.26
74125;BME280;62475;52.192;5.396;2022-10-16T03:22:07;101008.56;;;12.83;98.64
74125;BME280;62475;52.192;5.396;2022-10-16T03:24:33;101028.41;;;12.98;98.31
74125;BME280;62475;52.192;5.396;2022-10-16T03:26:58;101020.53;;;12.92;98.79
74125;BME280;62475;52.192;5.396;2022-10-16T03:29:24;100997.75;;;12.73;98.84
74125;BME280;62475;52.192;5.396;2022-10-16T03:31:51;101028.81;;;12.78;99.42
74125;BME280;62475;52.192;5.396;2022-10-16T03:34:16;101036.66;;;12.85;99.26
74125;BME280;62475;52.192;5.396;2022-10-16T03:36:41;101036.03;;;12.74;100.00
74125;BME280;62475;52.192;5.396;2022-10-16T03:39:07;101033.19;;;12.79;98.99
74125;BME280;62475;52.192;5.396;2022-10-16T03:41:32;101029.22;;;12.72;99.42
74125;BME280;62475;52.192;5.396;2022-10-16T03:43:57;101033.69;;;12.68;100.00
74125;BME280;62475;52.192;5.396;2022-10-16T03:46:23;101032.44;;;12.60;99.99
74125;BME280;62475;52.192;5.396;2022-10-16T03:48:48;101057.97;;;12.66;100.00
74125;BME280;62475;52.192;5.396;2022-10-16T03:51:13;101061.16;;;12.73;99.51
74125;BME280;62475;52.192;5.396;2022-10-16T03:53:39;101051.72;;;12.60;100.00
74125;BME280;62475;52.192;5.396;2022-10-16T03:56:05;101046.50;;;12.58;100.00
74125;BME280;62475;52.192;5.396;2022-10-16T03:58:30;101070.44;;;12.63;100.00
74125;BME280;62475;52.192;5.396;2022-10-16T04:00:55;101058.78;;;12.66;100.00
74125;BME280;62475;52.192;5.396;2022-10-16T04:03:21;101058.38;;;12.73;99.50
74125;BME280;62475;52.192;5.396;2022-10-16T04:05:46;101070.44;;;12.63;100.00
74125;BME280;62475;52.192;5.396;2022-10-16T04:08:12;101062.88;;;12.69;99.45
74125;BME280;62475;52.192;5.396;2022-10-16T04:10:37;101074.06;;;12.58;100.00
74125;BME280;62475;52.192;5.396;2022-10-16T04:13:03;101061.44;;;12.71;99.47
74125;BME280;62475;52.192;5.396;2022-10-16T04:15:28;101063.91;;;12.73;100.00
74125;BME280;62475;52.192;5.396;2022-10-16T04:17:53;101071.44;;;12.67;99.71
74125;BME280;62475;52.192;5.396;2022-10-16T04:20:19;101088.19;;;12.71;100.00
74125;BME280;62475;52.192;5.396;2022-10-16T04:22:44;101088.63;;;12.78;100.00
74125;BME280;62475;52.192;5.396;2022-10-16T04:25:12;101096.47;;;12.71;100.00
74125;BME280;62475;52.192;5.396;2022-10-16T04:27:38;101086.56;;;12.70;100.00
74125;BME280;62475;52.192;5.396;2022-10-16T04:30:04;101081.94;;;12.65;100.00
74125;BME280;62475;52.192;5.396;2022-10-16T04:32:30;101102.28;;;12.69;100.00
74125;BME280;62475;52.192;5.396;2022-10-16T04:34:56;101092.66;;;12.67;100.00
74125;BME280;62475;52.192;5.396;2022-10-16T04:37:25;101089.28;;;12.56;100.00
74125;BME280;62475;52.192;5.396;2022-10-16T04:39:51;101105.88;;;12.70;99.76
74125;BME280;62475;52.192;5.396;2022-10-16T04:42:16;101105.72;;;12.61;100.00
74125;BME280;62475;52.192;5.396;2022-10-16T04:44:42;101094.78;;;12.56;100.00
74125;BME280;62475;52.192;5.396;2022-10-16T04:47:07;101102.16;;;12.61;99.93
74125;BME280;62475;52.192;5.396;2022-10-16T04:49:33;101124.41;;;12.64;100.00
74125;BME280;62475;52.192;5.396;2022-10-16T04:51:58;101121.03;;;12.67;100.00
74125;BME280;62475;52.192;5.396;2022-10-16T04:54:23;101119.50;;;12.61;100.00
74125;BME280;62475;52.192;5.396;2022-10-16T04:56:49;101120.09;;;12.58;100.00
74125;BME280;62475;52.192;5.396;2022-10-16T04:59:16;101135.31;;;12.55;100.00
74125;BME280;62475;52.192;5.396;2022-10-16T05:01:42;101137.09;;;12.46;100.00
74125;BME280;62475;52.192;5.396;2022-10-16T05:04:08;101119.28;;;12.39;100.00
74125;BME280;62475;52.192;5.396;2022-10-16T05:06:34;101125.09;;;12.37;100.00
74125;BME280;62475;52.192;5.396;2022-10-16T05:08:59;101138.34;;;12.35;100.00
74125;BME280;62475;52.192;5.396;2022-10-16T05:11:24;101152.72;;;12.32;100.00
74125;BME280;62475;52.192;5.396;2022-10-16T05:13:49;101154.97;;;12.30;100.00
74125;BME280;62475;52.192;5.396;2022-10-16T05:16:15;101160.34;;;12.40;100.00
74125;BME280;62475;52.192;5.396;2022-10-16T05:18:41;101162.28;;;12.40;100.00
74125;BME280;62475;52.192;5.396;2022-10-16T05:21:06;101169.19;;;12.37;100.00
74125;BME280;62475;52.192;5.396;2022-10-16T05:23:34;101156.91;;;12.30;100.00
74125;BME280;62475;52.192;5.396;2022-10-16T05:26:00;101176.91;;;12.35;100.00
74125;BME280;62475;52.192;5.396;2022-10-16T05:28:27;101173.94;;;12.32;100.00
74125;BME280;62475;52.192;5.396;2022-10-16T05:30:53;101179.97;;;12.34;100.00
74125;BME280;62475;52.192;5.396;2022-10-16T05:33:23;101161.16;;;12.22;100.00
74125;BME280;62475;52.192;5.396;2022-10-16T05:35:50;101177.81;;;12.31;100.00
74125;BME280;62475;52.192;5.396;2022-10-16T05:38:16;101197.56;;;12.38;100.00
74125;BME280;62475;52.192;5.396;2022-10-16T05:40:41;101204.91;;;12.42;100.00
74125;BME280;62475;52.192;5.396;2022-10-16T05:43:07;101179.06;;;12.20;100.00
74125;BME280;62475;52.192;5.396;2022-10-16T05:45:32;101211.72;;;12.31;100.00
74125;BME280;62475;52.192;5.396;2022-10-16T05:47:59;101197.25;;;12.21;100.00
74125;BME280;62475;52.192;5.396;2022-10-16T05:50:24;101218.25;;;12.35;100.00
74125;BME280;62475;52.192;5.396;2022-10-16T05:52:50;101219.31;;;12.39;100.00
74125;BME280;62475;52.192;5.396;2022-10-16T05:55:15;101219.38;;;12.34;100.00
74125;BME280;62475;52.192;5.396;2022-10-16T05:57:40;101231.75;;;12.37;100.00
74125;BME280;62475;52.192;5.396;2022-10-16T06:00:06;101233.97;;;12.35;100.00
74125;BME280;62475;52.192;5.396;2022-10-16T06:02:31;101234.19;;;12.38;100.00
74125;BME280;62475;52.192;5.396;2022-10-16T06:04:57;101239.19;;;12.36;100.00
74125;BME280;62475;52.192;5.396;2022-10-16T06:07:22;101247.91;;;12.43;100.00
74125;BME280;62475;52.192;5.396;2022-10-16T06:09:49;101232.53;;;12.37;100.00
74125;BME280;62475;52.192;5.396;2022-10-16T06:12:15;101250.66;;;12.43;100.00
74125;BME280;62475;52.192;5.396;2022-10-16T06:14:40;101238.59;;;12.39;100.00
74125;BME280;62475;52.192;5.396;2022-10-16T06:17:06;101257.03;;;12.39;100.00
74125;BME280;62475;52.192;5.396;2022-10-16T06:19:31;101262.56;;;12.39;100.00
74125;BME280;62475;52.192;5.396;2022-10-16T06:21:56;101251.59;;;12.34;100.00
74125;BME280;62475;52.192;5.396;2022-10-16T06:24:23;101251.59;;;12.34;100.00
74125;BME280;62475;52.192;5.396;2022-10-16T06:26:48;101265.16;;;12.30;100.00
74125;BME280;62475;52.192;5.396;2022-10-16T06:29:13;101266.72;;;12.36;100.00
74125;BME280;62475;52.192;5.396;2022-10-16T06:31:39;101288.72;;;12.41;100.00
74125;BME280;62475;52.192;5.396;2022-10-16T06:34:04;101284.53;;;12.44;100.00
74125;BME280;62475;52.192;5.396;2022-10-16T06:36:34;101271.56;;;12.44;100.00
74125;BME280;62475;52.192;5.396;2022-10-16T06:38:59;101261.28;;;12.31;100.00
74125;BME280;62475;52.192;5.396;2022-10-16T06:41:25;101272.88;;;12.28;100.00
74125;BME280;62475;52.192;5.396;2022-10-16T06:43:50;101264.53;;;12.15;100.00
74125;BME280;62475;52.192;5.396;2022-10-16T06:46:20;101258.78;;;12.11;100.00
74125;BME280;62475;52.192;5.396;2022-10-16T06:48:46;101280.72;;;12.21;100.00
74125;BME280;62475;52.192;5.396;2022-10-16T06:51:13;101289.41;;;12.28;100.00
74125;BME280;62475;52.192;5.396;2022-10-16T06:53:40;101274.59;;;12.24;100.00
74125;BME280;62475;52.192;5.396;2022-10-16T06:56:12;101284.31;;;12.40;100.00
74125;BME280;62475;52.192;5.396;2022-10-16T06:58:38;101275.22;;;12.40;100.00
74125;BME280;62475;52.192;5.396;2022-10-16T07:01:04;101289.75;;;12.45;100.00
74125;BME280;62475;52.192;5.396;2022-10-16T07:03:33;101291.38;;;12.46;100.00
74125;BME280;62475;52.192;5.396;2022-10-16T07:06:03;101299.28;;;12.53;100.00
74125;BME280;62475;52.192;5.396;2022-10-16T07:08:38;101286.94;;;12.50;100.00
74125;BME280;62475;52.192;5.396;2022-10-16T07:11:04;101300.50;;;12.66;100.00
74125;BME280;62475;52.192;5.396;2022-10-16T07:13:33;101296.69;;;12.62;100.00
74125;BME280;62475;52.192;5.396;2022-10-16T07:16:06;101315.34;;;12.70;100.00
74125;BME280;62475;52.192;5.396;2022-10-16T07:18:32;101313.13;;;12.72;100.00
74125;BME280;62475;52.192;5.396;2022-10-16T07:21:05;101319.66;;;12.76;100.00
74125;BME280;62475;52.192;5.396;2022-10-16T07:23:31;101329.44;;;12.87;100.00
74125;BME280;62475;52.192;5.396;2022-10-16T07:25:56;101330.84;;;12.84;100.00
74125;BME280;62475;52.192;5.396;2022-10-16T07:28:22;101336.06;;;12.86;100.00
74125;BME280;62475;52.192;5.396;2022-10-16T07:30:47;101335.25;;;12.85;100.00
74125;BME280;62475;52.192;5.396;2022-10-16T07:33:13;101358.00;;;12.96;100.00
74125;BME280;62475;52.192;5.396;2022-10-16T07:35:47;101267.66;;;12.50;99.93
74125;BME280;62475;52.192;5.396;2022-10-16T07:38:12;101358.50;;;12.98;99.96
74125;BME280;62475;52.192;5.396;2022-10-16T07:40:38;101325.41;;;12.79;99.24
74125;BME280;62475;52.192;5.396;2022-10-16T07:43:03;101364.06;;;12.93;100.00
74125;BME280;62475;52.192;5.396;2022-10-16T07:45:30;101368.25;;;12.90;99.54
74125;BME280;62475;52.192;5.396;2022-10-16T07:47:55;101379.88;;;12.87;100.00
74125;BME280;62475;52.192;5.396;2022-10-16T07:50:21;101371.50;;;12.74;99.77
74125;BME280;62475;52.192;5.396;2022-10-16T07:52:46;101395.84;;;12.90;100.00
74125;BME280;62475;52.192;5.396;2022-10-16T07:55:11;101392.91;;;12.82;98.90
74125;BME280;62475;52.192;5.396;2022-10-16T07:57:37;101394.19;;;12.89;100.00
74125;BME280;62475;52.192;5.396;2022-10-16T08:00:02;101400.06;;;13.06;100.00
74125;BME280;62475;52.192;5.396;2022-10-16T08:02:28;101391.66;;;13.16;100.00
74125;BME280;62475;52.192;5.396;2022-10-16T08:04:53;101388.44;;;13.28;99.19
74125;BME280;62475;52.192;5.396;2022-10-16T08:07:18;101402.38;;;13.36;99.21
74125;BME280;62475;52.192;5.396;2022-10-16T08:09:44;101409.69;;;13.46;98.70
74125;BME280;62475;52.192;5.396;2022-10-16T08:12:09;101396.41;;;13.48;98.68
74125;BME280;62475;52.192;5.396;2022-10-16T08:14:35;101422.28;;;13.52;99.48
74125;BME280;62475;52.192;5.396;2022-10-16T08:17:01;101411.09;;;13.62;97.95
74125;BME280;62475;52.192;5.396;2022-10-16T08:19:27;101415.94;;;13.70;97.34
74125;BME280;62475;52.192;5.396;2022-10-16T08:21:52;101428.28;;;13.91;97.28
74125;BME280;62475;52.192;5.396;2022-10-16T08:24:18;101424.66;;;13.77;97.60
74125;BME280;62475;52.192;5.396;2022-10-16T08:26:43;101426.22;;;13.64;96.94
74125;BME280;62475;52.192;5.396;2022-10-16T08:29:08;101421.72;;;13.87;96.88
74125;BME280;62475;52.192;5.396;2022-10-16T08:31:34;101429.72;;;14.02;95.43
74125;BME280;62475;52.192;5.396;2022-10-16T08:33:59;101428.34;;;14.18;95.42
74125;BME280;62475;52.192;5.396;2022-10-16T08:36:26;101430.50;;;14.21;95.60
74125;BME280;62475;52.192;5.396;2022-10-16T08:38:51;101443.38;;;14.44;94.12
74125;BME280;62475;52.192;5.396;2022-10-16T08:44:13;101459.75;;;14.54;91.62
74125;BME280;62475;52.192;5.396;2022-10-16T08:47:02;101452.41;;;14.63;93.09
74125;BME280;62475;52.192;5.396;2022-10-16T08:49:31;101454.88;;;14.65;92.65
74125;BME280;62475;52.192;5.396;2022-10-16T08:51:57;101455.78;;;14.60;91.91
74125;BME280;62475;52.192;5.396;2022-10-16T08:54:32;101463.56;;;14.72;92.00
74125;BME280;62475;52.192;5.396;2022-10-16T08:57:15;101471.66;;;14.68;91.60
74125;BME280;62475;52.192;5.396;2022-10-16T08:59:42;101470.34;;;14.66;91.36
74125;BME280;62475;52.192;5.396;2022-10-16T09:02:38;101473.00;;;14.85;90.63
74125;BME280;62475;52.192;5.396;2022-10-16T09:05:24;101448.94;;;14.85;89.85
74125;BME280;62475;52.192;5.396;2022-10-16T09:10:51;101477.72;;;15.25;88.34
74125;BME280;62475;52.192;5.396;2022-10-16T09:13:23;101490.34;;;15.44;87.96
74125;BME280;62475;52.192;5.396;2022-10-16T09:18:56;101491.09;;;15.72;88.49
74125;BME280;62475;52.192;5.396;2022-10-16T09:21:51;101501.97;;;15.68;88.59
74125;BME280;62475;52.192;5.396;2022-10-16T09:24:20;101509.47;;;15.54;86.11
74125;BME280;62475;52.192;5.396;2022-10-16T09:26:47;101514.97;;;15.68;86.36
74125;BME280;62475;52.192;5.396;2022-10-16T09:29:14;101496.06;;;15.48;87.85
74125;BME280;62475;52.192;5.396;2022-10-16T09:31:39;101501.09;;;15.46;87.50
74125;BME280;62475;52.192;5.396;2022-10-16T09:34:08;101505.72;;;15.86;84.96
74125;BME280;62475;52.192;5.396;2022-10-16T09:36:44;101496.16;;;15.56;84.81
74125;BME280;62475;52.192;5.396;2022-10-16T09:39:11;101502.72;;;15.47;86.78
74125;BME280;62475;52.192;5.396;2022-10-16T09:41:39;101517.97;;;15.93;84.75
74125;BME280;62475;52.192;5.396;2022-10-16T09:44:19;101513.53;;;16.06;83.15
74125;BME280;62475;52.192;5.396;2022-10-16T09:46:46;101533.50;;;15.95;83.67
74125;BME280;62475;52.192;5.396;2022-10-16T09:49:25;101528.06;;;16.34;83.61
74125;BME280;62475;52.192;5.396;2022-10-16T09:52:11;101529.41;;;16.36;82.12
74125;BME280;62475;52.192;5.396;2022-10-16T09:54:37;101529.28;;;16.41;83.10
74125;BME280;62475;52.192;5.396;2022-10-16T09:57:06;101534.81;;;16.41;82.11
74125;BME280;62475;52.192;5.396;2022-10-16T09:59:32;101548.06;;;16.66;81.63
74125;BME280;62475;52.192;5.396;2022-10-16T10:02:01;101541.50;;;16.40;81.54
74125;BME280;62475;52.192;5.396;2022-10-16T10:04:38;101550.91;;;16.53;80.65
74125;BME280;62475;52.192;5.396;2022-10-16T10:07:04;101559.03;;;16.49;82.36
74125;BME280;62475;52.192;5.396;2022-10-16T10:09:47;101552.19;;;16.33;81.06
74125;BME280;62475;52.192;5.396;2022-10-16T10:12:24;101530.84;;;16.78;79.45
74125;BME280;62475;52.192;5.396;2022-10-16T10:14:55;101537.09;;;16.83;80.38
74125;BME280;62475;52.192;5.396;2022-10-16T10:17:26;101540.94;;;16.74;80.23
74125;BME280;62475;52.192;5.396;2022-10-16T10:20:00;101556.19;;;16.63;79.64
74125;BME280;62475;52.192;5.396;2022-10-16T10:22:29;101556.47;;;16.53;82.08
74125;BME280;62475;52.192;5.396;2022-10-16T10:24:57;101550.00;;;16.44;80.20
74125;BME280;62475;52.192;5.396;2022-10-16T10:33:22;101565.28;;;17.08;78.31
74125;BME280;62475;52.192;5.396;2022-10-16T10:38:34;101573.97;;;16.62;76.89
74125;BME280;62475;52.192;5.396;2022-10-16T10:44:01;101605.19;;;16.67;76.92
74125;BME280;62475;52.192;5.396;2022-10-16T10:46:37;101571.25;;;16.70;75.77
74125;BME280;62475;52.192;5.396;2022-10-16T10:49:20;101583.75;;;16.59;76.48
74125;BME280;62475;52.192;5.396;2022-10-16T10:55:20;101577.78;;;16.30;77.21
74125;BME280;62475;52.192;5.396;2022-10-16T10:58:16;101590.38;;;16.14;77.62
74125;BME280;62475;52.192;5.396;2022-10-16T11:06:33;101596.97;;;16.84;76.84
74125;BME280;62475;52.192;5.396;2022-10-16T11:09:24;101601.13;;;17.26;73.88
74125;BME280;62475;52.192;5.396;2022-10-16T11:11:58;101590.97;;;17.22;71.96
74125;BME280;62475;52.192;5.396;2022-10-16T11:14:33;101606.63;;;17.18;69.45
74125;BME280;62475;52.192;5.396;2022-10-16T11:17:08;101610.97;;;17.32;72.73
74125;BME280;62475;52.192;5.396;2022-10-16T11:19:52;101599.41;;;17.17;72.15
74125;BME280;62475;52.192;5.396;2022-10-16T11:25:22;101611.25;;;17.61;70.70
74125;BME280;62475;52.192;5.396;2022-10-16T11:27:50;101609.56;;;17.52;71.17
74125;BME280;62475;52.192;5.396;2022-10-16T11:30:22;101618.22;;;16.89;70.56
74125;BME280;62475;52.192;5.396;2022-10-16T11:35:55;101607.47;;;16.96;71.89
74125;BME280;62475;52.192;5.396;2022-10-16T11:43:43;101615.75;;;16.87;73.97
74125;BME280;62475;52.192;5.396;2022-10-16T11:46:16;101615.91;;;16.82;73.80
74125;BME280;62475;52.192;5.396;2022-10-16T11:48:47;101615.28;;;17.16;74.88
74125;BME280;62475;52.192;5.396;2022-10-16T11:51:36;101619.16;;;17.46;73.17
74125;BME280;62475;52.192;5.396;2022-10-16T11:54:41;101634.31;;;17.00;70.86
74125;BME280;62475;52.192;5.396;2022-10-16T11:57:20;101613.34;;;16.94;72.09
74125;BME280;62475;52.192;5.396;2022-10-16T12:00:09;101634.06;;;16.88;69.58
74125;BME280;62475;52.192;5.396;2022-10-16T12:05:25;101640.59;;;17.15;68.22
74125;BME280;62475;52.192;5.396;2022-10-16T12:08:09;101632.72;;;17.39;68.71
74125;BME280;62475;52.192;5.396;2022-10-16T12:10:36;101628.22;;;17.51;69.12
74125;BME280;62475;52.192;5.396;2022-10-16T12:13:29;101640.31;;;17.55;64.30
74125;BME280;62475;52.192;5.396;2022-10-16T12:16:21;101640.03;;;17.35;63.56
74125;BME280;62475;52.192;5.396;2022-10-16T12:18:48;101629.28;;;17.42;63.66
74125;BME280;62475;52.192;5.396;2022-10-16T12:21:15;101641.50;;;17.63;65.29
74125;BME280;62475;52.192;5.396;2022-10-16T12:26:24;101647.91;;;17.41;65.33
74125;BME280;62475;52.192;5.396;2022-10-16T12:28:49;101631.63;;;17.48;66.56
74125;BME280;62475;52.192;5.396;2022-10-16T12:31:16;101649.22;;;17.44;68.29
74125;BME280;62475;52.192;5.396;2022-10-16T12:33:58;101655.69;;;17.53;65.86
74125;BME280;62475;52.192;5.396;2022-10-16T12:36:32;101653.09;;;17.65;68.75
74125;BME280;62475;52.192;5.396;2022-10-16T12:38:59;101650.25;;;17.95;66.73
74125;BME280;62475;52.192;5.396;2022-10-16T12:43:50;101665.63;;;17.23;67.14
74125;BME280;62475;52.192;5.396;2022-10-16T12:48:42;101659.25;;;17.23;67.37
74125;BME280;62475;52.192;5.396;2022-10-16T12:53:58;101645.69;;;17.99;66.69
74125;BME280;62475;52.192;5.396;2022-10-16T12:56:33;101654.81;;;17.91;64.55
74125;BME280;62475;52.192;5.396;2022-10-16T13:04:30;101664.16;;;18.12;63.77
74125;BME280;62475;52.192;5.396;2022-10-16T13:07:15;101658.41;;;17.92;66.04
74125;BME280;62475;52.192;5.396;2022-10-16T13:10:01;101665.28;;;17.86;62.02
74125;BME280;62475;52.192;5.396;2022-10-16T13:12:52;101671.41;;;17.66;64.74
74125;BME280;62475;52.192;5.396;2022-10-16T13:17:58;101668.06;;;17.86;66.07
74125;BME280;62475;52.192;5.396;2022-10-16T13:20:31;101670.69;;;17.91;63.45
74125;BME280;62475;52.192;5.396;2022-10-16T13:28:33;101681.44;;;17.84;63.42
74125;BME280;62475;52.192;5.396;2022-10-16T13:31:00;101684.19;;;17.67;60.58
74125;BME280;62475;52.192;5.396;2022-10-16T13:33:35;101682.66;;;17.61;61.20
74125;BME280;62475;52.192;5.396;2022-10-16T13:36:02;101687.31;;;17.74;61.82
74125;BME280;62475;52.192;5.396;2022-10-16T13:38:33;101690.19;;;17.69;62.84
74125;BME280;62475;52.192;5.396;2022-10-16T13:41:04;101670.28;;;17.45;63.85
74125;BME280;62475;52.192;5.396;2022-10-16T13:46:12;101666.59;;;17.27;64.98
74125;BME280;62475;52.192;5.396;2022-10-16T13:48:38;101702.75;;;17.58;65.25
74125;BME280;62475;52.192;5.396;2022-10-16T13:51:06;101696.69;;;17.56;64.53
74125;BME280;62475;52.192;5.396;2022-10-16T13:53:35;101698.06;;;17.45;64.63
74125;BME280;62475;52.192;5.396;2022-10-16T13:56:06;101696.34;;;17.49;63.53
74125;BME280;62475;52.192;5.396;2022-10-16T13:58:33;101696.03;;;17.28;63.65
74125;BME280;62475;52.192;5.396;2022-10-16T14:01:00;101705.19;;;17.51;64.12
74125;BME280;62475;52.192;5.396;2022-10-16T14:03:44;101702.16;;;17.39;64.57
74125;BME280;62475;52.192;5.396;2022-10-16T14:06:18;101703.41;;;17.33;62.38
74125;BME280;62475;52.192;5.396;2022-10-16T14:08:53;101702.91;;;17.31;63.00
74125;BME280;62475;52.192;5.396;2022-10-16T14:11:23;101705.84;;;17.34;63.89
74125;BME280;62475;52.192;5.396;2022-10-16T14:13:50;101709.66;;;17.38;63.83
74125;BME280;62475;52.192;5.396;2022-10-16T14:16:27;101706.78;;;17.21;64.18
74125;BME280;62475;52.192;5.396;2022-10-16T14:18:59;101709.22;;;17.23;64.99